sensor_id;sensor_type;location;lat;lon;timestamp;temperature;humidity
23827;DHT22;12094;50.822;4.376;2023-02-13T00:01:17;7.20;99.90
23827;DHT22;12094;50.822;4.376;2023-02-13T00:03:47;7.20;99.90
23827;DHT22;12094;50.822;4.376;2023-02-13T00:06:14;7.10;99.90
23827;DHT22;12094;50.822;4.376;2023-02-13T00:08:43;7.10;99.90
23827;DHT22;12094;50.822;4.376;2023-02-13T00:11:13;7.00;99.90
23827;DHT22;12094;50.822;4.376;2023-02-13T00:13:45;7.00;99.90
23827;DHT22;12094;50.822;4.376;2023-02-13T00:16:13;6.90;99.90
23827;DHT22;12094;50.822;4.376;2023-02-13T00:18:47;6.90;99.90
23827;DHT22;12094;50.822;4.376;2023-02-13T00:21:19;7.00;99.90
23827;DHT22;12094;50.822;4.376;2023-02-13T00:23:49;7.00;99.90
23827;DHT22;12094;50.822;4.376;2023-02-13T00:26:16;7.10;99.90
23827;DHT22;12094;50.822;4.376;2023-02-13T00:28:47;7.00;99.90
23827;DHT22;12094;50.822;4.376;2023-02-13T00:31:17;6.90;99.90
23827;DHT22;12094;50.822;4.376;2023-02-13T00:33:48;6.80;99.90
23827;DHT22;12094;50.822;4.376;2023-02-13T00:36:19;6.90;99.90
23827;DHT22;12094;50.822;4.376;2023-02-13T00:38:49;6.90;99.90
23827;DHT22;12094;50.822;4.376;2023-02-13T00:41:19;6.90;99.90
23827;DHT22;12094;50.822;4.376;2023-02-13T00:43:51;7.00;99.90
23827;DHT22;12094;50.822;4.376;2023-02-13T00:46:42;6.90;99.90
23827;DHT22;12094;50.822;4.376;2023-02-13T00:49:12;7.00;99.90
23827;DHT22;12094;50.822;4.376;2023-02-13T00:51:40;7.00;99.90
23827;DHT22;12094;50.822;4.376;2023-02-13T00:54:08;6.90;99.90
23827;DHT22;12094;50.822;4.376;2023-02-13T00:56:38;7.10;99.90
23827;DHT22;12094;50.822;4.376;2023-02-13T00:59:15;7.00;99.90
23827;DHT22;12094;50.822;4.376;2023-02-13T01:01:52;7.00;99.90
23827;DHT22;12094;50.822;4.376;2023-02-13T01:04:24;7.00;99.90
23827;DHT22;12094;50.822;4.376;2023-02-13T01:07:07;6.90;99.90
23827;DHT22;12094;50.822;4.376;2023-02-13T01:09:52;6.90;99.90
23827;DHT22;12094;50.822;4.376;2023-02-13T01:12:36;6.90;99.90
23827;DHT22;12094;50.822;4.376;2023-02-13T01:15:06;6.90;99.90
23827;DHT22;12094;50.822;4.376;2023-02-13T01:17:37;6.80;99.90
23827;DHT22;12094;50.822;4.376;2023-02-13T01:20:08;6.90;99.90
23827;DHT22;12094;50.822;4.376;2023-02-13T01:22:37;6.90;99.90
23827;DHT22;12094;50.822;4.376;2023-02-13T01:25:10;6.80;99.90
23827;DHT22;12094;50.822;4.376;2023-02-13T01:27:38;6.80;99.90
23827;DHT22;12094;50.822;4.376;2023-02-13T01:30:06;6.80;99.90
23827;DHT22;12094;50.822;4.376;2023-02-13T01:32:40;6.80;99.90
23827;DHT22;12094;50.822;4.376;2023-02-13T01:35:08;6.80;99.90
23827;DHT22;12094;50.822;4.376;2023-02-13T01:37:39;6.70;99.90
23827;DHT22;12094;50.822;4.376;2023-02-13T01:40:09;6.60;99.90
23827;DHT22;12094;50.822;4.376;2023-02-13T01:42:39;6.60;99.90
23827;DHT22;12094;50.822;4.376;2023-02-13T01:45:22;6.50;99.90
23827;DHT22;12094;50.822;4.376;2023-02-13T01:48:22;6.40;99.90
23827;DHT22;12094;50.822;4.376;2023-02-13T01:51:09;6.40;99.90
23827;DHT22;12094;50.822;4.376;2023-02-13T01:54:02;6.40;99.90
23827;DHT22;12094;50.822;4.376;2023-02-13T01:56:45;6.40;99.90
23827;DHT22;12094;50.822;4.376;2023-02-13T01:59:27;6.30;99.90
23827;DHT22;12094;50.822;4.376;2023-02-13T02:01:58;6.30;99.90
23827;DHT22;12094;50.822;4.376;2023-02-13T02:04:34;6.40;99.90
23827;DHT22;12094;50.822;4.376;2023-02-13T02:07:22;6.50;99.90
23827;DHT22;12094;50.822;4.376;2023-02-13T02:09:55;6.50;99.90
23827;DHT22;12094;50.822;4.376;2023-02-13T02:15:18;6.30;99.90
23827;DHT22;12094;50.822;4.376;2023-02-13T02:17:48;6.30;99.90
23827;DHT22;12094;50.822;4.376;2023-02-13T02:23:30;6.20;99.90
23827;DHT22;12094;50.822;4.376;2023-02-13T02:26:53;6.20;99.90
23827;DHT22;12094;50.822;4.376;2023-02-13T02:35:49;6.00;99.90
23827;DHT22;12094;50.822;4.376;2023-02-13T02:38:52;6.00;99.90
23827;DHT22;12094;50.822;4.376;2023-02-13T02:41:39;5.90;99.90
23827;DHT22;12094;50.822;4.376;2023-02-13T02:44:20;5.90;99.90
23827;DHT22;12094;50.822;4.376;2023-02-13T02:50:26;6.00;99.90
23827;DHT22;12094;50.822;4.376;2023-02-13T02:56:13;5.90;99.90
23827;DHT22;12094;50.822;4.376;2023-02-13T02:58:54;5.80;99.90
23827;DHT22;12094;50.822;4.376;2023-02-13T03:01:42;5.70;99.90
23827;DHT22;12094;50.822;4.376;2023-02-13T03:04:32;5.80;99.90
23827;DHT22;12094;50.822;4.376;2023-02-13T03:07:22;5.70;99.90
23827;DHT22;12094;50.822;4.376;2023-02-13T03:09:52;5.80;99.90
23827;DHT22;12094;50.822;4.376;2023-02-13T03:15:35;5.90;99.90
23827;DHT22;12094;50.822;4.376;2023-02-13T03:18:23;5.90;99.90
23827;DHT22;12094;50.822;4.376;2023-02-13T03:21:16;6.00;99.90
23827;DHT22;12094;50.822;4.376;2023-02-13T03:24:24;6.00;99.90
23827;DHT22;12094;50.822;4.376;2023-02-13T03:36:43;6.10;99.90
23827;DHT22;12094;50.822;4.376;2023-02-13T03:44:56;6.00;99.90
23827;DHT22;12094;50.822;4.376;2023-02-13T03:47:53;6.00;99.90
23827;DHT22;12094;50.822;4.376;2023-02-13T03:50:25;6.10;99.90
23827;DHT22;12094;50.822;4.376;2023-02-13T03:52:58;6.00;99.90
23827;DHT22;12094;50.822;4.376;2023-02-13T03:55:30;6.10;99.90
23827;DHT22;12094;50.822;4.376;2023-02-13T03:58:22;6.00;99.90
23827;DHT22;12094;50.822;4.376;2023-02-13T04:01:14;5.90;99.90
23827;DHT22;12094;50.822;4.376;2023-02-13T04:04:27;5.80;99.90
23827;DHT22;12094;50.822;4.376;2023-02-13T04:07:24;5.70;99.90
23827;DHT22;12094;50.822;4.376;2023-02-13T04:10:10;5.80;99.90
23827;DHT22;12094;50.822;4.376;2023-02-13T04:12:42;5.90;99.90
23827;DHT22;12094;50.822;4.376;2023-02-13T04:15:18;5.90;99.90
23827;DHT22;12094;50.822;4.376;2023-02-13T04:17:56;5.90;99.90
23827;DHT22;12094;50.822;4.376;2023-02-13T04:20:30;5.90;99.90
23827;DHT22;12094;50.822;4.376;2023-02-13T04:23:04;6.00;99.90
23827;DHT22;12094;50.822;4.376;2023-02-13T04:25:33;6.00;99.90
23827;DHT22;12094;50.822;4.376;2023-02-13T04:28:02;6.00;99.90
23827;DHT22;12094;50.822;4.376;2023-02-13T04:30:29;6.00;99.90
23827;DHT22;12094;50.822;4.376;2023-02-13T04:32:57;6.00;99.90
23827;DHT22;12094;50.822;4.376;2023-02-13T04:35:27;6.10;99.90
23827;DHT22;12094;50.822;4.376;2023-02-13T04:37:55;6.00;99.90
23827;DHT22;12094;50.822;4.376;2023-02-13T04:40:23;6.00;99.90
23827;DHT22;12094;50.822;4.376;2023-02-13T04:42:50;6.00;99.90
23827;DHT22;12094;50.822;4.376;2023-02-13T04:45:19;6.10;99.90
23827;DHT22;12094;50.822;4.376;2023-02-13T04:47:55;6.10;99.90
23827;DHT22;12094;50.822;4.376;2023-02-13T04:50:23;6.00;99.90
23827;DHT22;12094;50.822;4.376;2023-02-13T04:52:55;6.00;99.90
23827;DHT22;12094;50.822;4.376;2023-02-13T04:55:27;6.00;99.90
23827;DHT22;12094;50.822;4.376;2023-02-13T04:57:55;5.90;99.90
23827;DHT22;12094;50.822;4.376;2023-02-13T05:00:25;5.90;99.90
23827;DHT22;12094;50.822;4.376;2023-02-13T05:03:01;5.90;99.90
23827;DHT22;12094;50.822;4.376;2023-02-13T05:05:34;5.90;99.90
23827;DHT22;12094;50.822;4.376;2023-02-13T05:08:02;5.80;99.90
23827;DHT22;12094;50.822;4.376;2023-02-13T05:10:33;5.80;99.90
23827;DHT22;12094;50.822;4.376;2023-02-13T05:13:01;5.80;99.90
23827;DHT22;12094;50.822;4.376;2023-02-13T05:15:30;5.80;99.90
23827;DHT22;12094;50.822;4.376;2023-02-13T05:17:58;5.90;99.90
23827;DHT22;12094;50.822;4.376;2023-02-13T05:20:26;6.00;99.90
23827;DHT22;12094;50.822;4.376;2023-02-13T05:22:53;5.90;99.90
23827;DHT22;12094;50.822;4.376;2023-02-13T05:25:40;6.00;99.90
23827;DHT22;12094;50.822;4.376;2023-02-13T05:28:09;6.00;99.90
23827;DHT22;12094;50.822;4.376;2023-02-13T05:30:56;6.00;99.90
23827;DHT22;12094;50.822;4.376;2023-02-13T05:33:24;6.00;99.90
23827;DHT22;12094;50.822;4.376;2023-02-13T05:35:51;6.00;99.90
23827;DHT22;12094;50.822;4.376;2023-02-13T05:38:22;6.00;99.90
23827;DHT22;12094;50.822;4.376;2023-02-13T05:40:49;6.00;99.90
23827;DHT22;12094;50.822;4.376;2023-02-13T05:43:18;5.90;99.90
23827;DHT22;12094;50.822;4.376;2023-02-13T05:45:45;5.80;99.90
23827;DHT22;12094;50.822;4.376;2023-02-13T05:48:13;5.60;99.90
23827;DHT22;12094;50.822;4.376;2023-02-13T05:50:40;5.60;99.90
23827;DHT22;12094;50.822;4.376;2023-02-13T05:53:08;5.50;99.90
23827;DHT22;12094;50.822;4.376;2023-02-13T05:55:35;5.50;99.90
23827;DHT22;12094;50.822;4.376;2023-02-13T05:58:02;5.40;99.90
23827;DHT22;12094;50.822;4.376;2023-02-13T06:00:31;5.40;99.90
23827;DHT22;12094;50.822;4.376;2023-02-13T06:02:58;5.50;99.90
23827;DHT22;12094;50.822;4.376;2023-02-13T06:05:24;5.60;99.90
23827;DHT22;12094;50.822;4.376;2023-02-13T06:07:56;5.70;99.90
23827;DHT22;12094;50.822;4.376;2023-02-13T06:14:50;5.50;99.90
23827;DHT22;12094;50.822;4.376;2023-02-13T06:17:17;5.50;99.90
23827;DHT22;12094;50.822;4.376;2023-02-13T06:19:46;5.50;99.90
23827;DHT22;12094;50.822;4.376;2023-02-13T06:22:13;5.40;99.90
23827;DHT22;12094;50.822;4.376;2023-02-13T06:24:41;5.40;99.90
23827;DHT22;12094;50.822;4.376;2023-02-13T06:27:23;5.40;99.90
23827;DHT22;12094;50.822;4.376;2023-02-13T06:29:56;5.40;99.90
23827;DHT22;12094;50.822;4.376;2023-02-13T06:32:27;5.50;99.90
23827;DHT22;12094;50.822;4.376;2023-02-13T06:34:54;5.50;99.90
23827;DHT22;12094;50.822;4.376;2023-02-13T06:37:21;5.40;99.90
23827;DHT22;12094;50.822;4.376;2023-02-13T06:39:49;5.40;99.90
23827;DHT22;12094;50.822;4.376;2023-02-13T06:42:17;5.20;99.90
23827;DHT22;12094;50.822;4.376;2023-02-13T06:44:45;5.00;99.90
23827;DHT22;12094;50.822;4.376;2023-02-13T06:47:14;5.00;99.90
23827;DHT22;12094;50.822;4.376;2023-02-13T06:49:46;5.10;99.90
23827;DHT22;12094;50.822;4.376;2023-02-13T06:52:13;5.20;99.90
23827;DHT22;12094;50.822;4.376;2023-02-13T06:54:40;5.20;99.90
23827;DHT22;12094;50.822;4.376;2023-02-13T06:57:15;5.10;99.90
23827;DHT22;12094;50.822;4.376;2023-02-13T06:59:42;5.10;99.90
23827;DHT22;12094;50.822;4.376;2023-02-13T07:02:13;5.20;99.90
23827;DHT22;12094;50.822;4.376;2023-02-13T07:04:42;5.30;99.90
23827;DHT22;12094;50.822;4.376;2023-02-13T07:07:09;5.30;99.90
23827;DHT22;12094;50.822;4.376;2023-02-13T07:09:36;5.40;99.90
23827;DHT22;12094;50.822;4.376;2023-02-13T07:12:04;5.30;99.90
23827;DHT22;12094;50.822;4.376;2023-02-13T07:14:33;5.40;99.90
23827;DHT22;12094;50.822;4.376;2023-02-13T07:17:00;5.50;99.90
23827;DHT22;12094;50.822;4.376;2023-02-13T07:19:29;5.50;99.90
23827;DHT22;12094;50.822;4.376;2023-02-13T07:21:57;5.50;99.90
23827;DHT22;12094;50.822;4.376;2023-02-13T07:24:24;5.40;99.90
23827;DHT22;12094;50.822;4.376;2023-02-13T07:26:52;5.40;99.90
23827;DHT22;12094;50.822;4.376;2023-02-13T07:29:20;5.50;99.90
23827;DHT22;12094;50.822;4.376;2023-02-13T07:31:46;5.60;99.90
23827;DHT22;12094;50.822;4.376;2023-02-13T07:34:13;5.50;99.90
23827;DHT22;12094;50.822;4.376;2023-02-13T07:36:41;5.60;99.90
23827;DHT22;12094;50.822;4.376;2023-02-13T07:39:07;5.70;99.90
23827;DHT22;12094;50.822;4.376;2023-02-13T07:41:38;5.70;99.90
23827;DHT22;12094;50.822;4.376;2023-02-13T07:44:06;5.70;99.90
23827;DHT22;12094;50.822;4.376;2023-02-13T07:46:34;5.80;99.90
23827;DHT22;12094;50.822;4.376;2023-02-13T07:49:02;5.80;99.90
23827;DHT22;12094;50.822;4.376;2023-02-13T07:51:30;5.80;99.90
23827;DHT22;12094;50.822;4.376;2023-02-13T07:53:58;5.80;99.90
23827;DHT22;12094;50.822;4.376;2023-02-13T07:56:28;5.90;99.90
23827;DHT22;12094;50.822;4.376;2023-02-13T07:58:55;5.90;99.90
23827;DHT22;12094;50.822;4.376;2023-02-13T08:01:22;5.90;99.90
23827;DHT22;12094;50.822;4.376;2023-02-13T08:03:52;5.80;99.90
23827;DHT22;12094;50.822;4.376;2023-02-13T08:06:21;5.70;99.90
23827;DHT22;12094;50.822;4.376;2023-02-13T08:08:48;5.70;99.90
23827;DHT22;12094;50.822;4.376;2023-02-13T08:11:35;5.70;99.90
23827;DHT22;12094;50.822;4.376;2023-02-13T08:14:22;5.70;99.90
23827;DHT22;12094;50.822;4.376;2023-02-13T08:16:53;5.70;99.90
23827;DHT22;12094;50.822;4.376;2023-02-13T08:19:22;5.80;99.90
23827;DHT22;12094;50.822;4.376;2023-02-13T08:21:53;5.90;99.90
23827;DHT22;12094;50.822;4.376;2023-02-13T08:24:20;6.20;99.90
23827;DHT22;12094;50.822;4.376;2023-02-13T08:26:48;6.20;99.90
23827;DHT22;12094;50.822;4.376;2023-02-13T08:29:17;6.20;99.90
23827;DHT22;12094;50.822;4.376;2023-02-13T08:31:46;6.30;99.90
23827;DHT22;12094;50.822;4.376;2023-02-13T08:34:14;6.40;99.90
23827;DHT22;12094;50.822;4.376;2023-02-13T08:36:41;6.50;99.90
23827;DHT22;12094;50.822;4.376;2023-02-13T08:39:13;6.50;99.90
23827;DHT22;12094;50.822;4.376;2023-02-13T08:41:41;6.70;99.90
23827;DHT22;12094;50.822;4.376;2023-02-13T08:44:10;6.70;99.90
23827;DHT22;12094;50.822;4.376;2023-02-13T08:46:38;6.80;99.90
23827;DHT22;12094;50.822;4.376;2023-02-13T08:49:07;6.80;99.90
23827;DHT22;12094;50.822;4.376;2023-02-13T08:51:36;6.90;99.90
23827;DHT22;12094;50.822;4.376;2023-02-13T08:54:05;7.00;99.90
23827;DHT22;12094;50.822;4.376;2023-02-13T08:56:32;7.10;99.90
23827;DHT22;12094;50.822;4.376;2023-02-13T08:59:03;7.20;99.90
23827;DHT22;12094;50.822;4.376;2023-02-13T09:01:32;7.30;99.90
23827;DHT22;12094;50.822;4.376;2023-02-13T09:03:59;7.40;99.90
23827;DHT22;12094;50.822;4.376;2023-02-13T09:06:28;7.50;99.90
23827;DHT22;12094;50.822;4.376;2023-02-13T09:08:56;7.60;99.90
23827;DHT22;12094;50.822;4.376;2023-02-13T09:11:25;7.70;99.90
23827;DHT22;12094;50.822;4.376;2023-02-13T09:13:56;7.80;99.90
23827;DHT22;12094;50.822;4.376;2023-02-13T09:16:23;7.80;99.90
23827;DHT22;12094;50.822;4.376;2023-02-13T09:18:50;7.80;99.90
23827;DHT22;12094;50.822;4.376;2023-02-13T09:21:20;7.80;99.90
23827;DHT22;12094;50.822;4.376;2023-02-13T09:23:51;7.90;99.90
23827;DHT22;12094;50.822;4.376;2023-02-13T09:26:23;7.90;99.90
23827;DHT22;12094;50.822;4.376;2023-02-13T09:28:51;8.00;99.90
23827;DHT22;12094;50.822;4.376;2023-02-13T09:31:19;8.10;99.90
23827;DHT22;12094;50.822;4.376;2023-02-13T09:33:48;8.10;99.90
23827;DHT22;12094;50.822;4.376;2023-02-13T09:36:18;8.30;99.90
23827;DHT22;12094;50.822;4.376;2023-02-13T09:38:50;8.50;99.90
23827;DHT22;12094;50.822;4.376;2023-02-13T09:41:21;8.60;99.90
23827;DHT22;12094;50.822;4.376;2023-02-13T09:44:00;8.70;99.90
23827;DHT22;12094;50.822;4.376;2023-02-13T09:46:35;8.70;99.90
23827;DHT22;12094;50.822;4.376;2023-02-13T09:49:18;8.70;99.90
23827;DHT22;12094;50.822;4.376;2023-02-13T09:51:53;8.80;99.90
23827;DHT22;12094;50.822;4.376;2023-02-13T09:54:22;8.90;99.90
23827;DHT22;12094;50.822;4.376;2023-02-13T09:56:58;9.00;99.90
23827;DHT22;12094;50.822;4.376;2023-02-13T10:07:44;9.40;99.90
23827;DHT22;12094;50.822;4.376;2023-02-13T10:10:53;9.50;99.90
23827;DHT22;12094;50.822;4.376;2023-02-13T10:22:04;9.60;99.90
23827;DHT22;12094;50.822;4.376;2023-02-13T10:24:52;9.70;99.90
23827;DHT22;12094;50.822;4.376;2023-02-13T10:30:52;9.70;99.90
23827;DHT22;12094;50.822;4.376;2023-02-13T10:33:27;9.90;99.90
23827;DHT22;12094;50.822;4.376;2023-02-13T10:36:18;10.10;99.90
23827;DHT22;12094;50.822;4.376;2023-02-13T10:39:18;10.10;99.90
23827;DHT22;12094;50.822;4.376;2023-02-13T10:41:52;10.20;99.90
23827;DHT22;12094;50.822;4.376;2023-02-13T10:47:06;10.10;99.90
23827;DHT22;12094;50.822;4.376;2023-02-13T11:03:26;11.60;99.90
23827;DHT22;12094;50.822;4.376;2023-02-13T11:05:57;12.60;99.90
23827;DHT22;12094;50.822;4.376;2023-02-13T11:08:39;13.60;99.90
23827;DHT22;12094;50.822;4.376;2023-02-13T11:11:29;14.70;99.90
23827;DHT22;12094;50.822;4.376;2023-02-13T11:14:15;15.50;99.90
23827;DHT22;12094;50.822;4.376;2023-02-13T11:16:58;16.40;99.90
23827;DHT22;12094;50.822;4.376;2023-02-13T11:19:39;17.10;99.90
23827;DHT22;12094;50.822;4.376;2023-02-13T11:27:40;16.70;99.90
23827;DHT22;12094;50.822;4.376;2023-02-13T11:30:35;17.00;99.90
23827;DHT22;12094;50.822;4.376;2023-02-13T11:33:21;18.10;99.90
23827;DHT22;12094;50.822;4.376;2023-02-13T11:36:07;18.20;99.90
23827;DHT22;12094;50.822;4.376;2023-02-13T11:38:37;19.00;99.90
23827;DHT22;12094;50.822;4.376;2023-02-13T11:41:12;19.60;99.90
23827;DHT22;12094;50.822;4.376;2023-02-13T11:43:52;20.20;98.30
23827;DHT22;12094;50.822;4.376;2023-02-13T11:46:21;19.50;98.60
23827;DHT22;12094;50.822;4.376;2023-02-13T11:48:57;20.00;97.40
23827;DHT22;12094;50.822;4.376;2023-02-13T11:51:38;20.00;97.00
23827;DHT22;12094;50.822;4.376;2023-02-13T11:54:27;20.30;96.10
23827;DHT22;12094;50.822;4.376;2023-02-13T11:56:58;20.10;95.80
23827;DHT22;12094;50.822;4.376;2023-02-13T11:59:39;20.60;94.40
23827;DHT22;12094;50.822;4.376;2023-02-13T12:02:29;19.00;96.20
23827;DHT22;12094;50.822;4.376;2023-02-13T12:05:25;18.60;98.00
23827;DHT22;12094;50.822;4.376;2023-02-13T12:07:59;17.70;99.30
23827;DHT22;12094;50.822;4.376;2023-02-13T12:10:29;18.00;99.50
23827;DHT22;12094;50.822;4.376;2023-02-13T12:13:05;17.20;99.90
23827;DHT22;12094;50.822;4.376;2023-02-13T12:15:36;18.20;99.30
23827;DHT22;12094;50.822;4.376;2023-02-13T12:26:44;16.90;99.90
23827;DHT22;12094;50.822;4.376;2023-02-13T12:35:04;18.60;99.30
23827;DHT22;12094;50.822;4.376;2023-02-13T12:54:48;19.00;99.90
23827;DHT22;12094;50.822;4.376;2023-02-13T13:06:45;20.80;92.80
23827;DHT22;12094;50.822;4.376;2023-02-13T13:12:47;17.40;98.70
23827;DHT22;12094;50.822;4.376;2023-02-13T13:15:38;17.00;99.80
23827;DHT22;12094;50.822;4.376;2023-02-13T13:18:45;16.60;99.90
23827;DHT22;12094;50.822;4.376;2023-02-13T13:24:30;14.80;99.90
23827;DHT22;12094;50.822;4.376;2023-02-13T13:27:03;14.50;99.90
23827;DHT22;12094;50.822;4.376;2023-02-13T13:29:50;14.10;99.90
23827;DHT22;12094;50.822;4.376;2023-02-13T13:32:20;14.10;99.90
23827;DHT22;12094;50.822;4.376;2023-02-13T13:34:50;14.00;99.90
23827;DHT22;12094;50.822;4.376;2023-02-13T13:44:01;13.40;99.90
23827;DHT22;12094;50.822;4.376;2023-02-13T13:46:54;13.30;99.90
23827;DHT22;12094;50.822;4.376;2023-02-13T13:49:51;13.30;99.90
23827;DHT22;12094;50.822;4.376;2023-02-13T13:52:34;13.40;99.90
23827;DHT22;12094;50.822;4.376;2023-02-13T13:55:05;13.40;99.90
23827;DHT22;12094;50.822;4.376;2023-02-13T14:03:11;13.10;99.90
23827;DHT22;12094;50.822;4.376;2023-02-13T14:06:08;13.40;99.90
23827;DHT22;12094;50.822;4.376;2023-02-13T14:17:13;13.60;99.90
23827;DHT22;12094;50.822;4.376;2023-02-13T14:19:51;13.70;99.90
23827;DHT22;12094;50.822;4.376;2023-02-13T14:22:35;13.60;99.90
23827;DHT22;12094;50.822;4.376;2023-02-13T14:25:06;13.40;99.90
23827;DHT22;12094;50.822;4.376;2023-02-13T14:27:57;13.40;99.90
23827;DHT22;12094;50.822;4.376;2023-02-13T14:30:29;13.40;99.90
23827;DHT22;12094;50.822;4.376;2023-02-13T14:33:05;13.30;99.90
23827;DHT22;12094;50.822;4.376;2023-02-13T14:36:07;13.30;99.90
23827;DHT22;12094;50.822;4.376;2023-02-13T14:38:38;13.30;99.90
23827;DHT22;12094;50.822;4.376;2023-02-13T14:49:26;13.50;99.90
23827;DHT22;12094;50.822;4.376;2023-02-13T14:52:04;13.50;99.90
23827;DHT22;12094;50.822;4.376;2023-02-13T14:54:43;13.50;99.90
23827;DHT22;12094;50.822;4.376;2023-02-13T14:57:33;13.50;99.90
23827;DHT22;12094;50.822;4.376;2023-02-13T15:00:24;13.40;99.90
23827;DHT22;12094;50.822;4.376;2023-02-13T15:03:03;13.50;99.90
23827;DHT22;12094;50.822;4.376;2023-02-13T15:05:33;13.50;99.90
23827;DHT22;12094;50.822;4.376;2023-02-13T15:08:10;13.40;99.90
23827;DHT22;12094;50.822;4.376;2023-02-13T15:10:54;13.30;99.90
23827;DHT22;12094;50.822;4.376;2023-02-13T15:13:34;13.30;99.90
23827;DHT22;12094;50.822;4.376;2023-02-13T15:16:10;13.20;99.90
23827;DHT22;12094;50.822;4.376;2023-02-13T15:18:49;13.20;99.90
23827;DHT22;12094;50.822;4.376;2023-02-13T15:21:20;13.30;99.90
23827;DHT22;12094;50.822;4.376;2023-02-13T15:23:54;13.50;99.90
23827;DHT22;12094;50.822;4.376;2023-02-13T15:26:24;13.60;99.90
23827;DHT22;12094;50.822;4.376;2023-02-13T15:29:15;13.60;99.90
23827;DHT22;12094;50.822;4.376;2023-02-13T15:31:54;13.50;99.90
23827;DHT22;12094;50.822;4.376;2023-02-13T15:34:30;13.40;99.90
23827;DHT22;12094;50.822;4.376;2023-02-13T15:37:01;13.40;99.90
23827;DHT22;12094;50.822;4.376;2023-02-13T15:39:32;13.40;99.90
23827;DHT22;12094;50.822;4.376;2023-02-13T15:42:01;13.40;99.90
23827;DHT22;12094;50.822;4.376;2023-02-13T15:44:58;13.30;99.90
23827;DHT22;12094;50.822;4.376;2023-02-13T15:47:32;13.40;99.90
23827;DHT22;12094;50.822;4.376;2023-02-13T15:50:44;13.40;99.90
23827;DHT22;12094;50.822;4.376;2023-02-13T15:53:23;13.30;99.90
23827;DHT22;12094;50.822;4.376;2023-02-13T15:55:59;13.30;99.90
23827;DHT22;12094;50.822;4.376;2023-02-13T15:58:51;13.30;99.90
23827;DHT22;12094;50.822;4.376;2023-02-13T16:01:21;13.30;99.90
23827;DHT22;12094;50.822;4.376;2023-02-13T16:04:17;13.30;99.90
23827;DHT22;12094;50.822;4.376;2023-02-13T16:06:46;13.20;99.90
23827;DHT22;12094;50.822;4.376;2023-02-13T16:09:32;13.20;99.90
23827;DHT22;12094;50.822;4.376;2023-02-13T16:15:12;13.20;99.90
23827;DHT22;12094;50.822;4.376;2023-02-13T16:17:46;13.20;99.90
23827;DHT22;12094;50.822;4.376;2023-02-13T16:20:29;13.20;99.90
23827;DHT22;12094;50.822;4.376;2023-02-13T16:23:19;13.20;99.90
23827;DHT22;12094;50.822;4.376;2023-02-13T16:25:48;13.20;99.90
23827;DHT22;12094;50.822;4.376;2023-02-13T16:28:22;13.20;99.90
23827;DHT22;12094;50.822;4.376;2023-02-13T16:31:03;13.20;99.90
23827;DHT22;12094;50.822;4.376;2023-02-13T16:33:56;13.10;99.90
23827;DHT22;12094;50.822;4.376;2023-02-13T16:36:33;13.00;99.90
23827;DHT22;12094;50.822;4.376;2023-02-13T16:39:14;13.00;99.90
23827;DHT22;12094;50.822;4.376;2023-02-13T16:41:45;12.90;99.90
23827;DHT22;12094;50.822;4.376;2023-02-13T16:44:24;12.90;99.90
23827;DHT22;12094;50.822;4.376;2023-02-13T16:47:03;12.80;99.90
23827;DHT22;12094;50.822;4.376;2023-02-13T16:49:34;12.80;99.90
23827;DHT22;12094;50.822;4.376;2023-02-13T16:52:23;12.70;99.90
23827;DHT22;12094;50.822;4.376;2023-02-13T16:54:58;12.60;99.90
23827;DHT22;12094;50.822;4.376;2023-02-13T16:57:33;12.50;99.90
23827;DHT22;12094;50.822;4.376;2023-02-13T17:00:25;12.50;99.90
23827;DHT22;12094;50.822;4.376;2023-02-13T17:03:07;12.50;99.90
23827;DHT22;12094;50.822;4.376;2023-02-13T17:05:38;12.40;99.90
23827;DHT22;12094;50.822;4.376;2023-02-13T17:08:06;12.40;99.90
23827;DHT22;12094;50.822;4.376;2023-02-13T17:10:35;12.30;99.90
23827;DHT22;12094;50.822;4.376;2023-02-13T17:13:15;12.30;99.90
23827;DHT22;12094;50.822;4.376;2023-02-13T17:15:48;12.30;99.90
23827;DHT22;12094;50.822;4.376;2023-02-13T17:18:15;12.10;99.90
23827;DHT22;12094;50.822;4.376;2023-02-13T17:20:48;12.10;99.90
23827;DHT22;12094;50.822;4.376;2023-02-13T17:23:30;12.00;99.90
23827;DHT22;12094;50.822;4.376;2023-02-13T17:25:58;12.00;99.90
23827;DHT22;12094;50.822;4.376;2023-02-13T17:28:27;11.90;99.90
23827;DHT22;12094;50.822;4.376;2023-02-13T17:30:56;11.90;99.90
23827;DHT22;12094;50.822;4.376;2023-02-13T17:33:29;11.80;99.90
23827;DHT22;12094;50.822;4.376;2023-02-13T17:35:57;11.80;99.90
23827;DHT22;12094;50.822;4.376;2023-02-13T17:38:25;11.80;99.90
23827;DHT22;12094;50.822;4.376;2023-02-13T17:40:52;11.70;99.90
23827;DHT22;12094;50.822;4.376;2023-02-13T17:43:20;11.70;99.90
23827;DHT22;12094;50.822;4.376;2023-02-13T17:45:50;11.60;99.90
23827;DHT22;12094;50.822;4.376;2023-02-13T17:48:19;11.60;99.90
23827;DHT22;12094;50.822;4.376;2023-02-13T17:50:48;11.60;99.90
23827;DHT22;12094;50.822;4.376;2023-02-13T17:53:28;11.50;99.90
23827;DHT22;12094;50.822;4.376;2023-02-13T17:56:00;11.50;99.90
23827;DHT22;12094;50.822;4.376;2023-02-13T17:58:27;11.40;99.90
23827;DHT22;12094;50.822;4.376;2023-02-13T18:00:54;11.40;99.90
23827;DHT22;12094;50.822;4.376;2023-02-13T18:03:22;11.30;99.90
23827;DHT22;12094;50.822;4.376;2023-02-13T18:05:53;11.30;99.90
23827;DHT22;12094;50.822;4.376;2023-02-13T18:08:21;11.30;99.90
23827;DHT22;12094;50.822;4.376;2023-02-13T18:10:50;11.20;99.90
23827;DHT22;12094;50.822;4.376;2023-02-13T18:13:18;11.20;99.90
23827;DHT22;12094;50.822;4.376;2023-02-13T18:15:47;11.20;99.90
23827;DHT22;12094;50.822;4.376;2023-02-13T18:18:15;11.10;99.90
23827;DHT22;12094;50.822;4.376;2023-02-13T18:20:44;11.10;99.90
23827;DHT22;12094;50.822;4.376;2023-02-13T18:23:13;11.00;99.90
23827;DHT22;12094;50.822;4.376;2023-02-13T18:25:40;10.90;99.90
23827;DHT22;12094;50.822;4.376;2023-02-13T18:28:07;10.90;99.90
23827;DHT22;12094;50.822;4.376;2023-02-13T18:30:34;10.80;99.90
23827;DHT22;12094;50.822;4.376;2023-02-13T18:33:03;10.80;99.90
23827;DHT22;12094;50.822;4.376;2023-02-13T18:35:30;10.80;99.90
23827;DHT22;12094;50.822;4.376;2023-02-13T18:38:02;10.70;99.90
23827;DHT22;12094;50.822;4.376;2023-02-13T18:40:31;10.70;99.90
23827;DHT22;12094;50.822;4.376;2023-02-13T18:43:01;10.70;99.90
23827;DHT22;12094;50.822;4.376;2023-02-13T18:45:35;10.70;99.90
23827;DHT22;12094;50.822;4.376;2023-02-13T18:48:15;10.60;99.90
23827;DHT22;12094;50.822;4.376;2023-02-13T18:53:47;10.50;99.90
23827;DHT22;12094;50.822;4.376;2023-02-13T18:56:22;10.50;99.90
23827;DHT22;12094;50.822;4.376;2023-02-13T18:59:17;10.50;99.90
23827;DHT22;12094;50.822;4.376;2023-02-13T19:06:27;10.40;99.90
23827;DHT22;12094;50.822;4.376;2023-02-13T19:08:57;10.30;99.90
23827;DHT22;12094;50.822;4.376;2023-02-13T19:11:36;10.30;99.90
23827;DHT22;12094;50.822;4.376;2023-02-13T19:14:07;10.30;99.90
23827;DHT22;12094;50.822;4.376;2023-02-13T19:16:40;10.20;99.90
23827;DHT22;12094;50.822;4.376;2023-02-13T19:19:11;10.20;99.90